Richwood, Texas
Current Conditions -  °F | °C
As of 5:53 PM on Sunday 23 Nov 2014 (Local Time) from KLBX Reporting Station
Clear Clear  
Wind Chill: 64°   Ceiling: Unl
Heat Index: 64°   Visibility: 10mi
Dew Point: 60°   Wind: 7mph
Humidity: 87%   Direction: 200°SSW
Pressure: 29.61"   Gusts: NA
Location:  29.0424°N, 95.4739°W
Report Text: KLBX 232353Z AUTO 20006KT 10SM CLR 18/16 A2961 RMK AO2 SLP025 T01780156 10256 20178 53013
Loading
Personal Weather Stations






























Interactive Weather Map New forecast layout! Learn more

10-Day Weather Forecast

Advertisements
Track Severe Weather on mobile